Time;durP1;ratioP1;P1;durP2;ratioP2;P2;SDS_P1;SDS_P2;PMS_P1;PMS_P2;Temp;Humidity;BMP_temperature;BMP_pressure;BME280_temperature;BME280_humidity;BME280_pressure;Samples;Min_cycle;Max_cycle;Signal;HPM_P1;HPM_P2
2021/10/26 00:00:00;;;;;;;24.80;15.90;;;6.80;99.90;;;;;;2097525;28;20025;-69
2021/10/26 00:01:01;;;;;;;23.58;16.23;;;6.80;99.90;;;;;;2097675;28;20070;-71
2021/10/26 00:02:02;;;;;;;22.35;15.95;;;6.80;99.90;;;;;;2096907;28;20016;-72
2021/10/26 00:03:02;;;;;;;22.30;15.65;;;6.90;99.90;;;;;;2096630;28;20565;-71
2021/10/26 00:04:03;;;;;;;23.52;15.57;;;6.90;99.90;;;;;;2097582;28;20033;-71
2021/10/26 00:05:05;;;;;;;21.98;14.40;;;6.90;99.90;;;;;;2097635;28;20074;-72
2021/10/26 00:06:06;;;;;;;21.08;15.07;;;6.90;99.90;;;;;;2097632;28;20024;-72
2021/10/26 00:07:07;;;;;;;25.90;16.90;;;6.90;99.90;;;;;;2097666;28;20520;-71
2021/10/26 00:08:08;;;;;;;27.35;16.35;;;6.90;99.90;;;;;;2097459;28;20371;-71
2021/10/26 00:09:08;;;;;;;28.10;17.17;;;7.00;99.90;;;;;;2097567;28;20032;-69
2021/10/26 00:10:09;;;;;;;24.27;16.20;;;7.00;99.90;;;;;;2097643;28;20100;-70
2021/10/26 00:11:10;;;;;;;25.38;16.15;;;7.00;99.90;;;;;;2097468;28;20675;-70
2021/10/26 00:12:10;;;;;;;21.75;14.88;;;7.00;99.90;;;;;;2097312;28;20046;-70
2021/10/26 00:13:12;;;;;;;25.60;16.27;;;7.00;99.90;;;;;;2097129;28;20136;-71
2021/10/26 00:14:13;;;;;;;24.08;15.38;;;7.00;99.90;;;;;;2097479;28;20032;-70
2021/10/26 00:15:14;;;;;;;22.67;15.40;;;7.00;99.90;;;;;;2096845;28;20040;-72
2021/10/26 00:16:15;;;;;;;23.80;15.07;;;7.00;99.90;;;;;;2088387;28;20076;-70
2021/10/26 00:17:16;;;;;;;26.80;16.23;;;7.00;99.90;;;;;;2096879;28;20029;-72
2021/10/26 00:18:18;;;;;;;25.35;15.82;;;7.00;99.90;;;;;;2097478;28;20024;-71
2021/10/26 00:19:18;;;;;;;25.55;16.50;;;7.00;99.90;;;;;;2097559;28;20403;-71
2021/10/26 00:20:19;;;;;;;24.42;16.75;;;7.00;99.90;;;;;;2096889;28;20035;-70
2021/10/26 00:21:20;;;;;;;23.58;16.35;;;7.00;99.90;;;;;;2096556;28;20078;-72
2021/10/26 00:22:22;;;;;;;24.23;15.93;;;7.00;99.90;;;;;;2097339;28;20044;-70
2021/10/26 00:23:22;;;;;;;23.23;15.63;;;7.00;99.90;;;;;;2096830;28;20553;-71
2021/10/26 00:24:23;;;;;;;22.52;14.73;;;7.00;99.90;;;;;;2097090;28;20480;-71
2021/10/26 00:25:23;;;;;;;20.92;14.82;;;7.00;99.90;;;;;;2097476;28;20029;-70
2021/10/26 00:26:24;;;;;;;20.88;14.52;;;7.00;99.90;;;;;;2097397;28;20028;-71
2021/10/26 00:27:25;;;;;;;21.73;14.60;;;7.00;99.90;;;;;;2096723;28;20025;-70
2021/10/26 00:28:26;;;;;;;19.15;14.02;;;7.00;99.90;;;;;;2088481;28;20032;-72
2021/10/26 00:29:29;;;;;;;20.98;14.77;;;6.90;99.90;;;;;;2088489;28;20032;-71
2021/10/26 00:30:30;;;;;;;27.83;18.00;;;6.90;99.90;;;;;;2096885;28;20479;-71
2021/10/26 00:31:32;;;;;;;27.02;17.60;;;6.90;99.90;;;;;;2097179;28;20040;-72
2021/10/26 00:32:32;;;;;;;27.60;17.67;;;6.90;99.90;;;;;;2087881;28;20084;-72
2021/10/26 00:33:35;;;;;;;24.70;16.40;;;6.90;99.90;;;;;;2088656;28;20047;-71
2021/10/26 00:34:37;;;;;;;26.63;16.85;;;6.80;99.90;;;;;;2096956;28;20032;-72
2021/10/26 00:35:38;;;;;;;25.98;17.23;;;6.80;99.90;;;;;;2097603;28;20024;-70
2021/10/26 00:36:38;;;;;;;23.00;15.90;;;6.80;99.90;;;;;;2097965;28;20036;-71
2021/10/26 00:37:39;;;;;;;23.77;15.90;;;6.80;99.90;;;;;;2096676;28;20074;-71
2021/10/26 00:38:40;;;;;;;28.73;16.98;;;6.80;99.90;;;;;;2096732;28;20738;-70
2021/10/26 00:39:41;;;;;;;25.65;17.50;;;6.80;99.90;;;;;;2097194;28;20533;-70
2021/10/26 00:40:44;;;;;;;27.65;17.52;;;6.80;99.90;;;;;;2097324;28;20052;-70
2021/10/26 00:41:45;;;;;;;25.17;16.85;;;6.90;99.90;;;;;;2095775;28;20045;-71
2021/10/26 00:42:46;;;;;;;23.73;15.55;;;6.80;99.90;;;;;;2088019;28;20393;-71
2021/10/26 00:43:48;;;;;;;24.73;16.23;;;6.80;99.90;;;;;;2088447;28;20025;-71
2021/10/26 00:44:49;;;;;;;23.83;15.73;;;6.80;99.90;;;;;;2096867;28;20044;-70
2021/10/26 00:45:50;;;;;;;23.00;15.40;;;6.80;99.90;;;;;;2096929;28;20783;-71
2021/10/26 00:46:50;;;;;;;22.08;14.82;;;6.80;99.90;;;;;;2096771;28;20021;-71
2021/10/26 00:47:51;;;;;;;25.77;16.38;;;6.80;99.90;;;;;;2088462;28;20425;-71
2021/10/26 00:48:53;;;;;;;28.63;17.48;;;6.80;99.90;;;;;;2088268;28;20029;-70
2021/10/26 00:49:54;;;;;;;23.85;16.40;;;6.80;99.90;;;;;;2096514;28;20027;-72
2021/10/26 00:50:56;;;;;;;23.02;16.20;;;6.80;99.90;;;;;;2088377;28;20498;-70
2021/10/26 00:51:57;;;;;;;26.08;16.60;;;6.90;99.90;;;;;;2088207;28;20025;-70
2021/10/26 00:52:58;;;;;;;22.88;15.68;;;6.90;99.90;;;;;;2096343;28;20020;-71
2021/10/26 00:53:59;;;;;;;23.15;16.10;;;6.90;99.90;;;;;;2088420;28;20032;-71
2021/10/26 00:55:00;;;;;;;25.67;16.90;;;6.90;99.90;;;;;;2088451;28;20029;-71
2021/10/26 00:56:01;;;;;;;24.25;16.40;;;6.90;99.90;;;;;;2088261;28;20175;-70
2021/10/26 00:57:01;;;;;;;24.38;17.27;;;6.90;99.90;;;;;;2088376;28;20041;-70
2021/10/26 00:58:02;;;;;;;24.90;16.63;;;6.90;99.90;;;;;;2096406;28;20024;-70
2021/10/26 00:59:03;;;;;;;27.60;16.23;;;7.00;99.90;;;;;;2088369;28;20017;-72
2021/10/26 01:00:10;;;;;;;26.55;16.63;;;7.00;99.90;;;;;;2096415;28;20413;-70
2021/10/26 01:01:11;;;;;;;24.65;16.92;;;7.00;99.90;;;;;;2088224;28;20056;-70
2021/10/26 01:02:12;;;;;;;26.77;17.00;;;7.00;99.90;;;;;;2088111;28;20029;-71
2021/10/26 01:03:13;;;;;;;25.60;16.88;;;7.00;99.90;;;;;;2087856;28;20128;-70
2021/10/26 01:04:23;;;;;;;26.25;17.58;;;7.00;99.90;;;;;;2096745;28;20086;-70
2021/10/26 01:05:23;;;;;;;25.35;16.67;;;7.10;99.90;;;;;;2096718;28;20036;-71
2021/10/26 01:06:25;;;;;;;27.17;16.38;;;7.10;99.90;;;;;;2096666;28;20028;-71
2021/10/26 01:07:26;;;;;;;23.83;16.13;;;7.10;99.90;;;;;;2096859;28;20024;-70
2021/10/26 01:08:28;;;;;;;24.88;15.73;;;7.10;99.90;;;;;;2088508;28;20029;-70
2021/10/26 01:09:29;;;;;;;27.92;17.33;;;7.10;99.90;;;;;;2088547;28;20058;-71
2021/10/26 01:10:34;;;;;;;27.38;16.85;;;7.20;99.90;;;;;;2089044;28;20088;-70
2021/10/26 01:11:35;;;;;;;29.40;17.80;;;7.20;99.90;;;;;;2087968;28;20029;-70
2021/10/26 01:12:37;;;;;;;29.02;17.15;;;7.20;99.90;;;;;;2088162;28;20148;-70
2021/10/26 01:13:38;;;;;;;23.10;16.35;;;7.20;99.90;;;;;;2096808;28;20794;-71
2021/10/26 01:14:40;;;;;;;26.27;16.02;;;7.20;99.90;;;;;;2088116;28;20064;-70
2021/10/26 01:15:41;;;;;;;23.98;15.70;;;7.20;99.90;;;;;;2088235;28;20029;-70
2021/10/26 01:17:08;;;;;;;28.23;17.38;;;7.20;99.90;;;;;;2090525;28;20067;-70
2021/10/26 01:18:09;;;;;;;24.95;15.55;;;7.30;99.90;;;;;;2089213;28;20029;-70
2021/10/26 01:19:10;;;;;;;22.35;15.52;;;7.30;99.90;;;;;;2088119;28;20032;-70
2021/10/26 01:20:11;;;;;;;22.90;15.65;;;7.30;99.90;;;;;;2096330;28;20040;-71
2021/10/26 01:21:12;;;;;;;21.85;15.35;;;7.20;99.90;;;;;;2096037;28;20021;-69
2021/10/26 01:22:14;;;;;;;21.08;14.93;;;7.30;99.90;;;;;;2096254;28;20028;-70
2021/10/26 01:23:14;;;;;;;22.83;15.57;;;7.30;99.90;;;;;;2087679;28;20032;-71
2021/10/26 01:24:15;;;;;;;23.65;15.60;;;7.30;99.90;;;;;;2087966;28;20122;-72
2021/10/26 01:25:16;;;;;;;23.10;15.82;;;7.30;99.90;;;;;;2088257;28;20104;-71
2021/10/26 01:26:20;;;;;;;25.45;16.88;;;7.20;99.90;;;;;;2088444;28;20479;-71
2021/10/26 01:27:23;;;;;;;25.55;16.50;;;7.30;99.90;;;;;;2096389;28;20032;-70
2021/10/26 01:28:27;;;;;;;28.52;16.90;;;7.30;99.90;;;;;;2096198;28;20078;-71
2021/10/26 01:29:28;;;;;;;27.98;16.85;;;7.30;99.90;;;;;;2088128;28;20036;-71
2021/10/26 01:30:33;;;;;;;26.27;16.90;;;7.30;99.90;;;;;;2088187;28;20116;-71
2021/10/26 01:31:53;;;;;;;27.10;16.83;;;7.30;99.90;;;;;;2096348;28;20040;-70
2021/10/26 01:33:04;;;;;;;29.05;17.48;;;7.30;99.90;;;;;;2095785;28;20427;-71
2021/10/26 01:34:16;;;;;;;28.05;17.65;;;7.30;99.90;;;;;;2090158;28;20047;-71
2021/10/26 01:35:17;;;;;;;27.02;17.23;;;7.30;99.90;;;;;;2096357;28;20563;-72
2021/10/26 01:36:20;;;;;;;25.80;16.30;;;7.30;99.90;;;;;;2096140;28;20099;-71
2021/10/26 01:37:21;;;;;;;25.05;16.75;;;7.30;99.90;;;;;;2096279;28;20033;-71
2021/10/26 01:38:23;;;;;;;25.35;16.52;;;7.30;99.90;;;;;;2096183;28;20573;-72
2021/10/26 01:39:24;;;;;;;26.50;16.73;;;7.30;99.90;;;;;;2087939;28;20493;-71
2021/10/26 01:40:25;;;;;;;24.25;15.60;;;7.30;99.90;;;;;;2087970;28;20040;-72
2021/10/26 01:41:25;;;;;;;22.70;15.85;;;7.30;99.90;;;;;;2087835;28;20467;-70
2021/10/26 01:42:26;;;;;;;26.20;17.10;;;7.30;99.90;;;;;;2096576;28;20028;-71
2021/10/26 01:43:29;;;;;;;22.50;15.20;;;7.30;99.90;;;;;;2096189;28;20052;-70
2021/10/26 01:44:31;;;;;;;22.45;15.40;;;7.30;99.90;;;;;;2087985;28;20126;-70
2021/10/26 01:45:39;;;;;;;24.70;14.82;;;7.30;99.90;;;;;;2089153;28;20029;-70
2021/10/26 01:46:54;;;;;;;24.00;15.40;;;7.30;99.90;;;;;;2090004;28;20811;-70
2021/10/26 01:47:56;;;;;;;26.25;17.58;;;7.30;99.90;;;;;;2096405;28;20042;-70
2021/10/26 01:48:56;;;;;;;24.70;16.80;;;7.30;99.90;;;;;;2088080;28;20098;-71
2021/10/26 01:49:57;;;;;;;26.17;16.45;;;7.30;99.90;;;;;;2096434;28;20044;-71
2021/10/26 01:51:01;;;;;;;26.88;17.35;;;7.20;99.90;;;;;;2096347;28;20024;-71
2021/10/26 01:52:03;;;;;;;25.65;17.15;;;7.30;99.90;;;;;;2087944;28;20021;-71
2021/10/26 01:53:03;;;;;;;25.85;16.88;;;7.30;99.90;;;;;;2096110;28;20456;-72
2021/10/26 01:54:05;;;;;;;24.15;16.00;;;7.30;99.90;;;;;;2089870;28;20021;-70
2021/10/26 01:55:08;;;;;;;28.60;17.05;;;7.20;99.90;;;;;;2089942;28;20020;-70
2021/10/26 01:56:11;;;;;;;25.35;16.63;;;7.20;99.90;;;;;;2090250;28;20047;-71
2021/10/26 01:57:28;;;;;;;30.23;17.65;;;7.20;99.90;;;;;;2091680;28;20037;-71
2021/10/26 01:58:37;;;;;;;28.10;16.67;;;7.20;99.90;;;;;;2098002;28;20032;-70
2021/10/26 01:59:56;;;;;;;27.88;17.67;;;7.20;99.90;;;;;;2091487;28;20287;-69
2021/10/26 02:00:56;;;;;;;31.10;18.58;;;7.30;99.90;;;;;;2090439;28;20381;-71
2021/10/26 02:01:57;;;;;;;26.92;17.38;;;7.20;99.90;;;;;;2097899;28;20028;-70
2021/10/26 02:03:06;;;;;;;28.20;18.23;;;7.30;99.90;;;;;;2097501;28;20024;-71
2021/10/26 02:04:07;;;;;;;25.35;16.85;;;7.30;99.90;;;;;;2097655;28;20028;-70
2021/10/26 02:05:09;;;;;;;24.75;16.60;;;7.20;99.90;;;;;;2097770;28;20399;-72
2021/10/26 02:06:10;;;;;;;28.63;17.95;;;7.20;99.90;;;;;;2089496;28;20029;-71
2021/10/26 02:07:11;;;;;;;26.77;17.90;;;7.20;99.90;;;;;;2098008;28;20037;-70
2021/10/26 02:08:12;;;;;;;26.08;16.58;;;7.20;99.90;;;;;;2097929;28;20029;-70
2021/10/26 02:09:13;;;;;;;24.15;16.30;;;7.20;99.90;;;;;;2089862;28;20021;-70
2021/10/26 02:10:16;;;;;;;30.65;19.10;;;7.20;99.90;;;;;;2089760;28;20132;-70
2021/10/26 02:11:18;;;;;;;28.85;17.88;;;7.20;99.90;;;;;;2089704;28;20032;-70
2021/10/26 02:12:22;;;;;;;27.17;17.35;;;7.20;99.90;;;;;;2089695;28;20033;-71
2021/10/26 02:13:27;;;;;;;26.00;17.58;;;7.20;99.90;;;;;;2089808;28;20033;-70
2021/10/26 02:14:29;;;;;;;26.77;17.35;;;7.20;99.90;;;;;;2089763;28;20052;-70
2021/10/26 02:15:31;;;;;;;24.42;17.02;;;7.20;99.90;;;;;;2089772;28;20419;-70
2021/10/26 02:16:33;;;;;;;26.48;17.27;;;7.20;99.90;;;;;;2098010;28;20024;-70
2021/10/26 02:17:34;;;;;;;28.45;17.88;;;7.20;99.90;;;;;;2089571;28;20056;-70
2021/10/26 02:18:38;;;;;;;29.30;18.35;;;7.20;99.90;;;;;;2097762;28;20103;-70
2021/10/26 02:19:39;;;;;;;25.55;17.88;;;7.20;99.90;;;;;;2097887;28;20476;-71
2021/10/26 02:20:39;;;;;;;26.90;17.98;;;7.20;99.90;;;;;;2097999;28;20720;-71
2021/10/26 02:21:42;;;;;;;29.33;18.50;;;7.10;99.90;;;;;;2089622;28;20087;-70
2021/10/26 02:22:43;;;;;;;26.67;17.38;;;7.10;99.90;;;;;;2089449;28;20086;-71
2021/10/26 02:23:44;;;;;;;28.20;17.95;;;7.10;99.90;;;;;;2098131;28;20029;-71
2021/10/26 02:24:45;;;;;;;28.17;18.48;;;7.10;99.90;;;;;;2098190;28;20016;-71
2021/10/26 02:25:46;;;;;;;27.88;18.60;;;7.10;99.90;;;;;;2098002;28;20506;-72
2021/10/26 02:26:47;;;;;;;29.40;18.70;;;7.00;99.90;;;;;;2098684;28;20107;-71
2021/10/26 02:27:48;;;;;;;26.55;18.08;;;7.00;99.90;;;;;;2098695;28;20131;-71
2021/10/26 02:28:49;;;;;;;26.75;17.90;;;7.00;99.90;;;;;;2098517;28;20028;-71
2021/10/26 02:29:50;;;;;;;26.23;17.45;;;6.90;99.90;;;;;;2098313;28;20028;-72
2021/10/26 02:30:51;;;;;;;25.13;17.38;;;6.90;99.90;;;;;;2098004;28;20511;-71
2021/10/26 02:31:52;;;;;;;26.30;17.42;;;6.90;99.90;;;;;;2089351;28;20029;-71
2021/10/26 02:32:54;;;;;;;29.08;18.92;;;6.90;99.90;;;;;;2097253;28;20024;-71
2021/10/26 02:33:56;;;;;;;33.33;19.70;;;6.80;99.90;;;;;;2089607;28;20399;-68
2021/10/26 02:34:56;;;;;;;30.65;18.65;;;6.80;99.90;;;;;;2089581;28;20033;-70
2021/10/26 02:35:57;;;;;;;26.45;17.52;;;6.80;99.90;;;;;;2089752;28;20029;-71
2021/10/26 02:36:58;;;;;;;28.52;18.20;;;6.80;99.90;;;;;;2097600;28;20037;-70
2021/10/26 02:38:00;;;;;;;27.83;18.05;;;6.80;99.90;;;;;;2089739;28;20035;-71
2021/10/26 02:39:04;;;;;;;29.65;19.27;;;6.80;99.90;;;;;;2089757;28;20020;-71
2021/10/26 02:40:06;;;;;;;29.90;19.25;;;6.80;99.90;;;;;;2097781;28;20511;-70
2021/10/26 02:41:06;;;;;;;29.42;18.67;;;6.80;99.90;;;;;;2089470;28;20025;-71
2021/10/26 02:42:07;;;;;;;29.38;18.05;;;6.70;99.90;;;;;;2089407;28;20049;-71
2021/10/26 02:43:08;;;;;;;31.23;19.15;;;6.70;99.90;;;;;;2088873;28;20497;-71
2021/10/26 02:44:09;;;;;;;31.45;19.02;;;6.70;99.90;;;;;;2097743;28;20028;-71
2021/10/26 02:45:12;;;;;;;28.17;18.23;;;6.70;99.90;;;;;;2097503;28;20021;-71
2021/10/26 02:46:14;;;;;;;29.35;18.30;;;6.70;99.90;;;;;;2089675;28;20025;-70
2021/10/26 02:47:15;;;;;;;30.35;19.55;;;6.70;99.90;;;;;;2097844;28;20150;-71
2021/10/26 02:48:15;;;;;;;30.00;19.92;;;6.60;99.90;;;;;;2097764;28;20123;-70
2021/10/26 02:49:17;;;;;;;28.88;19.02;;;6.70;99.90;;;;;;2097785;28;20032;-71
2021/10/26 02:50:19;;;;;;;29.52;19.33;;;6.60;99.90;;;;;;2097993;28;20028;-70
2021/10/26 02:51:20;;;;;;;31.15;19.55;;;6.60;99.90;;;;;;2097522;28;20535;-71
2021/10/26 02:52:21;;;;;;;27.77;18.25;;;6.60;99.90;;;;;;2098364;28;20032;-71
2021/10/26 02:53:22;;;;;;;27.33;16.98;;;6.60;99.90;;;;;;2097168;28;20032;-70
2021/10/26 02:54:22;;;;;;;24.75;16.75;;;6.60;99.90;;;;;;2089282;28;20665;-70
2021/10/26 02:55:24;;;;;;;24.60;16.42;;;6.60;99.90;;;;;;2089312;28;20492;-71
2021/10/26 02:56:25;;;;;;;26.17;16.92;;;6.50;99.90;;;;;;2089208;28;20059;-73
2021/10/26 02:57:26;;;;;;;22.40;16.15;;;6.50;99.90;;;;;;2097423;28;20488;-71
2021/10/26 02:58:26;;;;;;;23.20;16.60;;;6.50;99.90;;;;;;2088991;28;20079;-73
2021/10/26 02:59:27;;;;;;;25.30;16.08;;;6.50;99.90;;;;;;2089217;28;20089;-70
2021/10/26 03:00:28;;;;;;;23.80;15.88;;;6.50;99.90;;;;;;2089189;28;20060;-70
2021/10/26 03:01:35;;;;;;;25.05;16.33;;;6.40;99.90;;;;;;2097076;28;20017;-71
2021/10/26 03:02:40;;;;;;;30.15;19.67;;;6.40;99.90;;;;;;2097092;28;20028;-71
2021/10/26 03:03:41;;;;;;;32.88;20.48;;;6.40;99.90;;;;;;2097589;28;20028;-71
2021/10/26 03:04:42;;;;;;;31.23;19.63;;;6.40;99.90;;;;;;2088875;28;20392;-71
2021/10/26 03:05:43;;;;;;;29.60;19.25;;;6.40;99.90;;;;;;2089150;28;20031;-70
2021/10/26 03:06:43;;;;;;;29.55;19.25;;;6.40;99.90;;;;;;2089538;28;20112;-70
2021/10/26 03:07:45;;;;;;;31.92;20.50;;;6.40;99.90;;;;;;2089741;28;20029;-69
2021/10/26 03:08:46;;;;;;;34.67;20.67;;;6.40;99.90;;;;;;2097272;28;20407;-70
2021/10/26 03:09:56;;;;;;;33.53;20.73;;;6.40;99.90;;;;;;2097594;28;20024;-69
2021/10/26 03:10:57;;;;;;;31.05;19.65;;;6.40;99.90;;;;;;2089234;28;20040;-70
2021/10/26 03:11:58;;;;;;;32.70;20.63;;;6.40;99.90;;;;;;2088878;28;20033;-70
2021/10/26 03:12:58;;;;;;;32.85;20.35;;;6.40;99.90;;;;;;2097236;28;20031;-71
2021/10/26 03:13:59;;;;;;;34.28;20.67;;;6.40;99.90;;;;;;2097585;28;20115;-71
2021/10/26 03:14:59;;;;;;;32.03;20.20;;;6.40;99.90;;;;;;2090006;28;20485;-72
2021/10/26 03:16:01;;;;;;;29.75;19.90;;;6.40;99.90;;;;;;2090285;28;20033;-71
2021/10/26 03:17:03;;;;;;;31.70;20.42;;;6.40;99.90;;;;;;2090827;28;20033;-72
2021/10/26 03:18:07;;;;;;;29.48;19.67;;;6.40;99.90;;;;;;2098518;28;20059;-71
2021/10/26 03:19:11;;;;;;;30.85;19.45;;;6.40;99.90;;;;;;2097784;28;20013;-70
2021/10/26 03:20:15;;;;;;;28.30;19.02;;;6.40;99.90;;;;;;2089893;28;20025;-70
2021/10/26 03:21:16;;;;;;;34.53;20.50;;;6.40;99.90;;;;;;2088961;28;20064;-71
2021/10/26 03:22:17;;;;;;;34.20;20.73;;;6.40;99.90;;;;;;2089128;28;20021;-71
2021/10/26 03:23:18;;;;;;;33.08;20.52;;;6.40;99.90;;;;;;2097103;28;20071;-70
2021/10/26 03:24:19;;;;;;;34.92;20.88;;;6.40;99.90;;;;;;2097371;28;20111;-70
2021/10/26 03:25:21;;;;;;;30.77;20.13;;;6.40;99.90;;;;;;2097497;28;20397;-70
2021/10/26 03:26:22;;;;;;;33.83;20.33;;;6.40;99.90;;;;;;2089005;28;20017;-70
2021/10/26 03:27:24;;;;;;;32.08;20.23;;;6.40;99.90;;;;;;2089066;28;20507;-70
2021/10/26 03:28:25;;;;;;;31.55;19.30;;;6.40;99.90;;;;;;2089316;28;20078;-70
2021/10/26 03:29:26;;;;;;;28.52;19.35;;;6.40;99.90;;;;;;2089156;28;20033;-70
2021/10/26 03:30:27;;;;;;;26.50;19.02;;;6.40;99.90;;;;;;2089100;28;20025;-70
2021/10/26 03:31:38;;;;;;;33.80;21.10;;;6.40;99.90;;;;;;2090100;28;20431;-70
2021/10/26 03:32:59;;;;;;;30.67;19.95;;;6.40;99.90;;;;;;2093169;28;20040;-71
2021/10/26 03:34:10;;;;;;;35.70;20.75;;;6.40;99.90;;;;;;2097057;28;20021;-70
2021/10/26 03:35:11;;;;;;;34.67;21.35;;;6.30;99.90;;;;;;2097485;28;20571;-70
2021/10/26 03:36:14;;;;;;;30.85;19.98;;;6.30;99.90;;;;;;2097150;28;20039;-70
2021/10/26 03:37:17;;;;;;;33.78;20.15;;;6.30;99.90;;;;;;2089585;28;20029;-71
2021/10/26 03:38:18;;;;;;;34.20;20.45;;;6.30;99.90;;;;;;2089012;28;20116;-71
2021/10/26 03:39:19;;;;;;;30.73;20.00;;;6.30;99.90;;;;;;2089367;28;20028;-70
2021/10/26 03:40:20;;;;;;;32.38;20.30;;;6.30;99.90;;;;;;2089577;28;20029;-71
2021/10/26 03:41:21;;;;;;;31.38;20.38;;;6.30;99.90;;;;;;2089446;28;20021;-71
2021/10/26 03:42:25;;;;;;;29.58;20.02;;;6.30;99.90;;;;;;2097996;28;20031;-70
2021/10/26 03:43:27;;;;;;;30.55;19.77;;;6.30;99.90;;;;;;2097536;28;20024;-71
2021/10/26 03:44:28;;;;;;;31.63;20.15;;;6.30;99.90;;;;;;2089101;28;20122;-70
2021/10/26 03:45:28;;;;;;;31.77;19.80;;;6.30;99.90;;;;;;2089047;28;20033;-71
2021/10/26 03:46:30;;;;;;;28.67;18.85;;;6.30;99.90;;;;;;2089239;28;20036;-71
2021/10/26 03:47:31;;;;;;;27.73;18.30;;;6.30;99.90;;;;;;2089089;28;20530;-71
2021/10/26 03:48:32;;;;;;;29.50;18.50;;;6.40;99.90;;;;;;2089314;28;20032;-70
2021/10/26 03:49:33;;;;;;;32.10;20.20;;;6.40;99.90;;;;;;2089811;28;20033;-71
2021/10/26 03:50:33;;;;;;;30.88;19.63;;;6.50;99.90;;;;;;2089411;28;20052;-71
2021/10/26 03:51:34;;;;;;;30.10;18.75;;;6.50;99.90;;;;;;2096961;28;20230;-71
2021/10/26 03:52:35;;;;;;;28.65;18.35;;;6.50;99.90;;;;;;2096683;28;20124;-72
2021/10/26 03:53:37;;;;;;;30.58;19.15;;;6.60;99.90;;;;;;2088632;28;20894;-71
2021/10/26 03:54:39;;;;;;;30.40;19.30;;;6.60;99.90;;;;;;2097194;28;20089;-71
2021/10/26 03:55:40;;;;;;;33.97;20.13;;;6.60;99.90;;;;;;2088997;28;20397;-70
2021/10/26 03:56:43;;;;;;;31.52;20.05;;;6.60;99.90;;;;;;2089008;28;20037;-72
2021/10/26 03:57:45;;;;;;;30.42;19.70;;;6.60;99.90;;;;;;2088266;28;20029;-72
2021/10/26 03:58:45;;;;;;;34.83;20.77;;;6.60;99.90;;;;;;2088607;28;20166;-72
2021/10/26 03:59:53;;;;;;;35.00;21.20;;;6.70;99.90;;;;;;2097117;28;20127;-71
2021/10/26 04:00:54;;;;;;;35.85;20.13;;;6.70;99.90;;;;;;2097067;28;20021;-70
2021/10/26 04:02:12;;;;;;;34.90;20.58;;;6.80;99.90;;;;;;2097435;28;20388;-70
2021/10/26 04:03:13;;;;;;;30.93;19.93;;;6.80;99.90;;;;;;2096508;28;20028;-70
2021/10/26 04:04:14;;;;;;;32.83;20.23;;;6.80;99.90;;;;;;2096777;28;20266;-72
2021/10/26 04:05:24;;;;;;;37.58;21.13;;;6.90;99.90;;;;;;2096875;28;20030;-69
2021/10/26 04:06:27;;;;;;;32.72;20.52;;;6.90;99.90;;;;;;2097132;28;20021;-70
2021/10/26 04:07:28;;;;;;;28.63;19.02;;;6.90;99.90;;;;;;2096875;28;20038;-70
2021/10/26 04:08:38;;;;;;;34.67;21.40;;;6.90;99.90;;;;;;2088695;28;20036;-71
2021/10/26 04:10:50;;;;;;;31.40;19.83;;;7.00;99.90;;;;;;2081946;28;20033;-71
2021/10/26 04:12:07;;;;;;;32.45;19.50;;;7.00;99.90;;;;;;2089060;28;20047;-70
2021/10/26 04:13:08;;;;;;;32.42;19.88;;;6.90;99.90;;;;;;2096509;28;20503;-70
2021/10/26 04:14:09;;;;;;;33.42;20.30;;;6.90;99.90;;;;;;2088668;28;20057;-71
2021/10/26 04:15:11;;;;;;;32.63;20.52;;;6.90;99.90;;;;;;2088754;28;20030;-69
2021/10/26 04:16:12;;;;;;;33.10;21.33;;;6.90;99.90;;;;;;2080320;28;20560;-71
2021/10/26 04:17:13;;;;;;;35.58;20.70;;;6.90;99.90;;;;;;2079898;28;20120;-70
2021/10/26 04:18:14;;;;;;;34.00;20.63;;;6.90;99.90;;;;;;2088711;28;20600;-71
2021/10/26 04:19:15;;;;;;;31.90;20.10;;;6.90;99.90;;;;;;2088654;28;20028;-71
2021/10/26 04:20:16;;;;;;;29.65;19.55;;;6.90;99.90;;;;;;2088775;28;20025;-71
2021/10/26 04:21:17;;;;;;;35.20;20.27;;;6.90;99.90;;;;;;2096650;28;20020;-71
2021/10/26 04:22:21;;;;;;;34.15;20.10;;;7.00;99.90;;;;;;2080621;28;20073;-71
2021/10/26 04:23:23;;;;;;;27.35;18.95;;;7.00;99.90;;;;;;2088449;28;20053;-71
2021/10/26 04:24:24;;;;;;;31.02;19.08;;;7.00;99.90;;;;;;2096650;28;20028;-72
2021/10/26 04:25:25;;;;;;;29.10;19.38;;;7.00;99.90;;;;;;2088684;28;20029;-70
2021/10/26 04:26:26;;;;;;;28.35;18.85;;;7.10;99.90;;;;;;2088642;28;20025;-71
2021/10/26 04:27:28;;;;;;;30.58;20.60;;;7.10;99.90;;;;;;2088571;28;20025;-72
2021/10/26 04:28:28;;;;;;;34.58;20.25;;;7.10;99.90;;;;;;2088590;28;20040;-70
2021/10/26 04:29:30;;;;;;;32.15;20.63;;;7.10;99.90;;;;;;2096692;28;20048;-71
2021/10/26 04:30:34;;;;;;;34.08;21.95;;;7.10;99.90;;;;;;2096645;28;20035;-71
2021/10/26 04:31:36;;;;;;;33.65;20.83;;;7.10;99.90;;;;;;2088903;28;20025;-70
2021/10/26 04:32:36;;;;;;;32.83;20.30;;;7.10;99.90;;;;;;2088132;28;20673;-70
2021/10/26 04:33:42;;;;;;;35.00;21.30;;;7.10;99.90;;;;;;2089302;28;20579;-73
2021/10/26 04:34:45;;;;;;;33.63;20.92;;;7.10;99.90;;;;;;2088940;28;20036;-72
2021/10/26 04:35:46;;;;;;;31.48;20.67;;;7.20;99.90;;;;;;2088738;28;20032;-74
2021/10/26 04:36:46;;;;;;;30.98;20.08;;;7.20;99.90;;;;;;2081050;28;20037;-73
2021/10/26 04:37:48;;;;;;;28.35;19.63;;;7.20;99.90;;;;;;2081037;28;20030;-71
2021/10/26 04:38:48;;;;;;;28.67;18.52;;;7.20;99.90;;;;;;2080687;28;20116;-72
2021/10/26 04:39:49;;;;;;;29.10;18.92;;;7.20;99.90;;;;;;2088578;28;20086;-70
2021/10/26 04:40:57;;;;;;;30.58;19.23;;;7.20;99.90;;;;;;2096988;28;20090;-73
2021/10/26 04:41:58;;;;;;;29.58;18.88;;;7.20;99.90;;;;;;2089423;28;20473;-72
2021/10/26 04:42:59;;;;;;;30.67;19.60;;;7.20;99.90;;;;;;2096482;28;20032;-72
2021/10/26 04:44:02;;;;;;;29.88;19.17;;;7.20;99.90;;;;;;2096594;28;20083;-72
2021/10/26 04:45:07;;;;;;;29.10;19.67;;;7.20;99.90;;;;;;2088726;28;20512;-72
2021/10/26 04:46:08;;;;;;;26.70;18.20;;;7.20;99.90;;;;;;2097113;28;20044;-71
2021/10/26 04:47:09;;;;;;;26.92;18.05;;;7.10;99.90;;;;;;2097413;28;20025;-71
2021/10/26 04:48:14;;;;;;;27.85;18.98;;;7.10;99.90;;;;;;2097295;28;20537;-71
2021/10/26 04:49:15;;;;;;;37.28;25.25;;;7.10;99.90;;;;;;2097307;28;20048;-71
2021/10/26 04:50:15;;;;;;;40.42;26.23;;;7.00;99.90;;;;;;2089146;28;20052;-72
2021/10/26 04:51:16;;;;;;;39.05;26.95;;;7.00;99.90;;;;;;2080458;28;20512;-71
2021/10/26 04:52:17;;;;;;;38.25;25.50;;;6.90;99.90;;;;;;2080525;28;20064;-72
2021/10/26 04:53:20;;;;;;;38.20;25.20;;;6.90;99.90;;;;;;2080337;28;20022;-72
2021/10/26 04:54:29;;;;;;;47.00;32.63;;;6.90;99.90;;;;;;2089851;28;20126;-72
2021/10/26 04:55:42;;;;;;;44.78;26.20;;;6.90;99.90;;;;;;2097512;28;20036;-72
2021/10/26 04:56:43;;;;;;;42.00;26.35;;;6.90;99.90;;;;;;2097229;28;20028;-71
2021/10/26 04:58:07;;;;;;;38.15;25.88;;;6.90;99.90;;;;;;2096545;28;20488;-71
2021/10/26 04:59:16;;;;;;;37.38;24.40;;;6.90;99.90;;;;;;2097284;28;20029;-71
2021/10/26 05:00:16;;;;;;;39.97;23.38;;;6.90;99.90;;;;;;2092488;28;20035;-72
2021/10/26 05:01:17;;;;;;;41.25;26.52;;;6.90;99.90;;;;;;2091817;28;20047;-72
2021/10/26 05:02:18;;;;;;;40.42;25.75;;;7.00;99.90;;;;;;2091439;28;20065;-73
2021/10/26 05:03:20;;;;;;;35.15;22.95;;;7.00;99.90;;;;;;2088154;28;20040;-71
2021/10/26 05:04:21;;;;;;;35.53;22.13;;;7.00;99.90;;;;;;2088816;28;20029;-73
2021/10/26 05:05:22;;;;;;;33.38;21.58;;;7.00;99.90;;;;;;2088678;28;20519;-72
2021/10/26 05:06:23;;;;;;;35.40;23.67;;;7.00;99.90;;;;;;2097175;28;20100;-73
2021/10/26 05:07:25;;;;;;;43.42;29.88;;;7.00;99.90;;;;;;2096947;28;20024;-72
2021/10/26 05:08:27;;;;;;;56.42;36.95;;;7.00;99.90;;;;;;2097053;28;20021;-76
2021/10/26 05:09:28;;;;;;;62.03;41.92;;;7.00;99.90;;;;;;2097282;28;20411;-71
2021/10/26 05:10:30;;;;;;;61.38;40.15;;;7.00;99.90;;;;;;2096574;28;20035;-73
2021/10/26 05:11:31;;;;;;;60.53;39.00;;;7.00;99.90;;;;;;2087939;28;20025;-71
2021/10/26 05:12:32;;;;;;;71.05;44.50;;;7.00;99.90;;;;;;2087657;28;20513;-72
2021/10/26 05:13:34;;;;;;;47.35;29.67;;;7.00;99.90;;;;;;2088468;28;20489;-71
2021/10/26 05:15:07;;;;;;;37.30;21.45;;;7.00;99.90;;;;;;2087927;28;20036;-71
2021/10/26 05:16:28;;;;;;;35.03;21.42;;;7.00;99.90;;;;;;2096845;28;20033;-72
2021/10/26 05:17:49;;;;;;;36.03;20.98;;;7.00;99.90;;;;;;2097079;28;20127;-74
2021/10/26 05:19:17;;;;;;;34.75;20.33;;;7.00;99.90;;;;;;2097235;28;20055;-73
2021/10/26 05:20:37;;;;;;;35.17;22.13;;;7.00;99.90;;;;;;2097306;28;20040;-73
2021/10/26 05:21:43;;;;;;;40.05;24.92;;;7.00;99.90;;;;;;2096938;28;20480;-71
2021/10/26 05:23:07;;;;;;;39.65;23.77;;;7.00;99.90;;;;;;2095414;28;20041;-71